KODO

Odessa-Schlemeyer Field Airport

Odessa, Texas, USA
METAR KODO 232253Z AUTO 13006KT 10SM CLR 14/M19 A3022 RMK AO2 SLP224 T01441194
Observed Flight Rules
Jan-23 @ 22:53 UTC (29 minutes ago) Visual Flight Rules
Wind Visibility Clouds
130° at 6 knots 10 miles
  • Clear skies
Temperatures Readings
Current 14°C / 57°F
Dewpoint -19°C / -2°F
Humidity 9%
Altimeter 30.22" Hg
Pressure 1022.4 hPa
Elevation 902
METAR KODO 232253Z AUTO 13006KT 10SM CLR 14/M19 A3022 RMK AO2 SLP224 T01441194
Observed Flight Rules
Jan-23 @ 22:53 UTC
(29 minutes ago)
VFR
Wind Visibility
130° at 6 knots 10 miles
Clouds
  • Clear skies
Temperature Dewpoint
14°C / 57°F -19°C / -2°F
Humidity Altimeter Pressure
9% 30.22" Hg 1022.4 hPa